Time,TemperatureF,DewpointF,PressureIn,WindDirection,WindDirectionDegrees,WindSpeedMPH,WindSpeedGustMPH,Humidity,HourlyPrecipIn,Conditions,Clouds,dailyrainin,SoftwareType,DateUTC
2013-03-21 00:02:00,20.7,7.5,30.15,NW,306,0.0,3.0,56,0.00,,,0.00,Wunderground v.1.15,2013-03-21 05:02:00,
2013-03-21 00:08:00,20.6,7.4,30.14,NW,306,0.0,3.0,56,0.00,,,0.00,Wunderground v.1.15,2013-03-21 05:08:00,
2013-03-21 00:14:00,20.6,7.4,30.15,NW,306,0.0,3.0,56,0.00,,,0.00,Wunderground v.1.15,2013-03-21 05:14:00,
2013-03-21 00:20:00,20.5,7.3,30.15,NW,306,0.0,3.0,56,0.00,,,0.00,Wunderground v.1.15,2013-03-21 05:20:00,
2013-03-21 00:26:00,20.4,7.2,30.15,NW,306,0.0,3.0,56,0.00,,,0.00,Wunderground v.1.15,2013-03-21 05:26:00,
2013-03-21 00:32:00,20.2,7.0,30.15,NW,306,0.0,3.0,56,0.00,,,0.00,Wunderground v.1.15,2013-03-21 05:32:00,
2013-03-21 00:38:00,19.9,6.7,30.15,NW,306,0.0,3.0,56,0.00,,,0.00,Wunderground v.1.15,2013-03-21 05:38:00,
2013-03-21 00:44:00,19.8,6.6,30.15,NW,306,0.0,3.0,56,0.00,,,0.00,Wunderground v.1.15,2013-03-21 05:44:00,
2013-03-21 00:50:00,19.6,6.8,30.15,NW,306,0.0,3.0,57,0.00,,,0.00,Wunderground v.1.15,2013-03-21 05:50:00,
2013-03-21 00:56:00,19.4,6.6,30.15,NW,306,0.0,3.0,57,0.00,,,0.00,Wunderground v.1.15,2013-03-21 05:56:00,
2013-03-21 01:02:00,19.3,6.5,30.15,NW,306,0.0,0.0,57,0.00,,,0.00,Wunderground v.1.15,2013-03-21 06:02:00,
2013-03-21 01:08:00,19.2,6.4,30.15,NW,306,0.0,1.0,57,0.00,,,0.00,Wunderground v.1.15,2013-03-21 06:08:00,
2013-03-21 01:14:00,19.1,6.3,30.15,NW,306,1.0,4.0,57,0.00,,,0.00,Wunderground v.1.15,2013-03-21 06:14:00,
2013-03-21 01:20:00,19.3,6.9,30.15,NW,306,2.0,2.0,58,0.00,,,0.00,Wunderground v.1.15,2013-03-21 06:20:00,
2013-03-21 01:26:00,19.5,7.1,30.14,NW,306,1.0,2.0,58,0.00,,,0.00,Wunderground v.1.15,2013-03-21 06:26:00,
2013-03-21 01:32:00,19.7,7.3,30.14,NW,306,1.0,2.0,58,0.00,,,0.00,Wunderground v.1.15,2013-03-21 06:32:00,
2013-03-21 01:38:00,19.8,7.4,30.14,NW,306,1.0,2.0,58,0.00,,,0.00,Wunderground v.1.15,2013-03-21 06:38:00,
2013-03-21 01:44:00,19.9,7.5,30.14,NW,306,0.0,1.0,58,0.00,,,0.00,Wunderground v.1.15,2013-03-21 06:44:00,
2013-03-21 01:50:00,19.9,7.5,30.14,NW,306,0.0,0.0,58,0.00,,,0.00,Wunderground v.1.15,2013-03-21 06:50:00,
2013-03-21 01:56:00,19.9,7.5,30.14,NW,306,0.0,1.0,58,0.00,,,0.00,Wunderground v.1.15,2013-03-21 06:56:00,
2013-03-21 02:02:00,20.0,7.6,30.14,NW,306,1.0,4.0,58,0.00,,,0.00,Wunderground v.1.15,2013-03-21 07:02:00,
2013-03-21 02:08:00,20.2,8.1,30.14,NW,306,1.0,4.0,59,0.00,,,0.00,Wunderground v.1.15,2013-03-21 07:08:00,
2013-03-21 02:14:00,20.3,8.2,30.14,NW,306,1.0,3.0,59,0.00,,,0.00,Wunderground v.1.15,2013-03-21 07:14:00,
2013-03-21 02:20:00,20.5,8.0,30.14,NW,307,1.0,1.0,58,0.00,,,0.00,Wunderground v.1.15,2013-03-21 07:20:00,
2013-03-21 02:26:00,20.4,8.0,30.14,NW,306,0.0,2.0,58,0.00,,,0.00,Wunderground v.1.15,2013-03-21 07:26:00,
2013-03-21 02:32:00,20.4,8.0,30.14,NW,306,0.0,2.0,58,0.00,,,0.00,Wunderground v.1.15,2013-03-21 07:32:00,
2013-03-21 02:38:00,20.2,7.8,30.14,NW,306,0.0,2.0,58,0.00,,,0.00,Wunderground v.1.15,2013-03-21 07:38:00,
2013-03-21 02:44:00,20.0,8.0,30.14,NW,307,0.0,2.0,59,0.00,,,0.00,Wunderground v.1.15,2013-03-21 07:44:00,
2013-03-21 02:50:00,19.8,7.4,30.14,NW,306,0.0,2.0,58,0.00,,,0.00,Wunderground v.1.15,2013-03-21 07:50:00,
2013-03-21 02:56:00,19.6,7.6,30.14,NW,306,0.0,2.0,59,0.00,,,0.00,Wunderground v.1.15,2013-03-21 07:56:00,
2013-03-21 03:02:00,19.4,7.4,30.14,NW,306,0.0,2.0,59,0.00,,,0.00,Wunderground v.1.15,2013-03-21 08:02:00,
2013-03-21 03:08:00,19.2,7.2,30.13,NW,306,0.0,2.0,59,0.00,,,0.00,Wunderground v.1.15,2013-03-21 08:08:00,
2013-03-21 03:14:00,18.9,6.9,30.13,NW,306,0.0,2.0,59,0.00,,,0.00,Wunderground v.1.15,2013-03-21 08:14:00,
2013-03-21 03:20:00,18.6,6.6,30.13,NW,306,0.0,2.0,59,0.00,,,0.00,Wunderground v.1.15,2013-03-21 08:20:00,
2013-03-21 03:26:00,18.4,6.4,30.13,NW,306,0.0,2.0,59,0.00,,,0.00,Wunderground v.1.15,2013-03-21 08:26:00,
2013-03-21 03:32:00,18.1,6.2,30.13,NW,306,0.0,2.0,59,0.00,,,0.00,Wunderground v.1.15,2013-03-21 08:32:00,
2013-03-21 03:38:00,17.9,6.0,30.13,NW,306,0.0,2.0,59,0.00,,,0.00,Wunderground v.1.15,2013-03-21 08:38:00,
2013-03-21 03:44:00,17.7,5.8,30.13,NW,306,0.0,2.0,59,0.00,,,0.00,Wunderground v.1.15,2013-03-21 08:44:00,
2013-03-21 03:50:00,17.5,5.6,30.13,NW,306,0.0,2.0,59,0.00,,,0.00,Wunderground v.1.15,2013-03-21 08:50:00,
2013-03-21 03:56:00,17.3,5.8,30.13,NW,307,0.0,2.0,60,0.00,,,0.00,Wunderground v.1.15,2013-03-21 08:56:00,
2013-03-21 04:02:00,17.1,5.2,30.13,NW,307,0.0,0.0,59,0.00,,,0.00,Wunderground v.1.15,2013-03-21 09:02:00,
2013-03-21 04:08:00,17.0,5.5,30.12,NW,306,0.0,0.0,60,0.00,,,0.00,Wunderground v.1.15,2013-03-21 09:08:00,
2013-03-21 04:14:00,16.8,5.3,30.12,NW,306,0.0,0.0,60,0.00,,,0.00,Wunderground v.1.15,2013-03-21 09:14:00,
2013-03-21 04:20:00,16.7,5.2,30.12,NW,306,0.0,0.0,60,0.00,,,0.00,Wunderground v.1.15,2013-03-21 09:20:00,
2013-03-21 04:26:00,16.5,5.0,30.12,NW,306,0.0,0.0,60,0.00,,,0.00,Wunderground v.1.15,2013-03-21 09:26:00,
2013-03-21 04:32:00,16.4,4.9,30.12,NW,306,0.0,0.0,60,0.00,,,0.00,Wunderground v.1.15,2013-03-21 09:32:00,
2013-03-21 04:38:00,16.3,4.8,30.12,NW,306,0.0,0.0,60,0.00,,,0.00,Wunderground v.1.15,2013-03-21 09:38:00,
2013-03-21 04:44:00,16.2,4.7,30.12,NW,306,0.0,0.0,60,0.00,,,0.00,Wunderground v.1.15,2013-03-21 09:44:00,
2013-03-21 04:50:00,16.1,4.6,30.12,NW,306,0.0,0.0,60,0.00,,,0.00,Wunderground v.1.15,2013-03-21 09:50:00,
2013-03-21 04:56:00,15.9,4.4,30.12,NW,306,0.0,0.0,60,0.00,,,0.00,Wunderground v.1.15,2013-03-21 09:56:00,
2013-03-21 05:02:00,15.8,4.4,30.12,NW,306,0.0,0.0,60,0.00,,,0.00,Wunderground v.1.15,2013-03-21 10:02:00,
2013-03-21 05:08:00,15.7,4.6,30.12,NW,306,0.0,0.0,61,0.00,,,0.00,Wunderground v.1.15,2013-03-21 10:08:00,
2013-03-21 05:14:00,15.5,4.4,30.12,NW,306,0.0,0.0,61,0.00,,,0.00,Wunderground v.1.15,2013-03-21 10:14:00,
2013-03-21 05:20:00,15.4,4.3,30.12,NW,306,0.0,0.0,61,0.00,,,0.00,Wunderground v.1.15,2013-03-21 10:20:00,
2013-03-21 05:26:00,15.3,4.2,30.12,NW,306,0.0,0.0,61,0.00,,,0.00,Wunderground v.1.15,2013-03-21 10:26:00,
2013-03-21 05:32:00,15.2,4.1,30.12,NW,306,0.0,0.0,61,0.00,,,0.00,Wunderground v.1.15,2013-03-21 10:32:00,
2013-03-21 05:38:00,15.0,4.0,30.13,NW,306,0.0,0.0,61,0.00,,,0.00,Wunderground v.1.15,2013-03-21 10:38:00,
2013-03-21 05:44:00,14.9,3.9,30.13,NW,306,0.0,0.0,61,0.00,,,0.00,Wunderground v.1.15,2013-03-21 10:44:00,
2013-03-21 05:50:00,14.7,3.7,30.13,NW,306,0.0,0.0,61,0.00,,,0.00,Wunderground v.1.15,2013-03-21 10:50:00,
2013-03-21 05:56:00,14.6,3.6,30.13,NW,306,0.0,0.0,61,0.00,,,0.00,Wunderground v.1.15,2013-03-21 10:56:00,
2013-03-21 06:02:00,14.5,3.5,30.13,NW,306,0.0,0.0,61,0.00,,,0.00,Wunderground v.1.15,2013-03-21 11:02:00,
2013-03-21 06:08:00,14.4,3.4,30.13,NW,306,0.0,0.0,61,0.00,,,0.00,Wunderground v.1.15,2013-03-21 11:08:00,
2013-03-21 06:14:00,14.3,3.3,30.13,NW,306,0.0,0.0,61,0.00,,,0.00,Wunderground v.1.15,2013-03-21 11:14:00,
2013-03-21 06:20:00,14.2,3.2,30.13,NW,306,0.0,0.0,61,0.00,,,0.00,Wunderground v.1.15,2013-03-21 11:20:00,
2013-03-21 06:26:00,14.1,3.1,30.13,NW,306,0.0,0.0,61,0.00,,,0.00,Wunderground v.1.15,2013-03-21 11:26:00,
2013-03-21 06:32:00,14.0,3.4,30.13,NW,306,0.0,1.0,62,0.00,,,0.00,Wunderground v.1.15,2013-03-21 11:32:00,
2013-03-21 06:38:00,14.0,3.4,30.13,NW,306,1.0,1.0,62,0.00,,,0.00,Wunderground v.1.15,2013-03-21 11:38:00,
2013-03-21 06:44:00,14.0,3.4,30.13,NW,306,0.0,1.0,62,0.00,,,0.00,Wunderground v.1.15,2013-03-21 11:44:00,
2013-03-21 06:50:00,14.0,3.4,30.13,NW,306,0.0,0.0,62,0.00,,,0.00,Wunderground v.1.15,2013-03-21 11:50:00,
2013-03-21 06:56:00,14.0,3.4,30.13,NW,306,0.0,0.0,62,0.00,,,0.00,Wunderground v.1.15,2013-03-21 11:56:00,
2013-03-21 07:02:00,14.0,3.4,30.12,NW,306,0.0,0.0,62,0.00,,,0.00,Wunderground v.1.15,2013-03-21 12:02:00,
2013-03-21 07:08:00,14.0,3.4,30.13,NW,307,0.0,0.0,62,0.00,,,0.00,Wunderground v.1.15,2013-03-21 12:08:00,
2013-03-21 07:14:00,14.1,3.8,30.13,NW,306,0.0,0.0,63,0.00,,,0.00,Wunderground v.1.15,2013-03-21 12:14:00,
2013-03-21 07:20:00,14.1,3.8,30.12,NW,306,0.0,0.0,63,0.00,,,0.00,Wunderground v.1.15,2013-03-21 12:20:00,
2013-03-21 07:26:00,14.2,3.9,30.12,NW,306,0.0,0.0,63,0.00,,,0.00,Wunderground v.1.15,2013-03-21 12:26:00,
2013-03-21 07:32:00,14.3,4.0,30.13,NW,306,0.0,0.0,63,0.00,,,0.00,Wunderground v.1.15,2013-03-21 12:32:00,
2013-03-21 07:38:00,14.6,4.3,30.12,NW,306,0.0,0.0,63,0.00,,,0.00,Wunderground v.1.15,2013-03-21 12:38:00,
2013-03-21 07:44:00,15.1,5.1,30.13,NW,306,0.0,0.0,64,0.00,,,0.00,Wunderground v.1.15,2013-03-21 12:44:00,
2013-03-21 07:50:00,15.9,5.9,30.12,NW,310,0.0,0.0,64,0.00,,,0.00,Wunderground v.1.15,2013-03-21 12:50:00,
2013-03-21 07:56:00,17.0,6.9,30.12,NW,310,0.0,3.0,64,0.00,,,0.00,Wunderground v.1.15,2013-03-21 12:56:00,
2013-03-21 08:02:00,18.1,8.3,30.13,NW,321,1.0,2.0,65,0.00,,,0.00,Wunderground v.1.15,2013-03-21 13:02:00,
2013-03-21 08:08:00,19.1,9.3,30.13,North,355,3.0,4.0,65,0.00,,,0.00,Wunderground v.1.15,2013-03-21 13:08:00,
2013-03-21 08:14:00,19.8,9.9,30.13,North,355,2.0,5.0,65,0.00,,,0.00,Wunderground v.1.15,2013-03-21 13:14:00,
2013-03-21 08:20:00,20.4,10.5,30.13,North,360,2.0,2.0,65,0.00,,,0.00,Wunderground v.1.15,2013-03-21 13:20:00,
2013-03-21 08:26:00,20.8,10.9,30.14,North,360,1.0,2.0,65,0.00,,,0.00,Wunderground v.1.15,2013-03-21 13:26:00,
2013-03-21 08:32:00,21.1,11.2,30.14,North,360,1.0,1.0,65,0.00,,,0.00,Wunderground v.1.15,2013-03-21 13:32:00,
2013-03-21 08:38:00,21.3,11.4,30.14,North,360,0.0,1.0,65,0.00,,,0.00,Wunderground v.1.15,2013-03-21 13:38:00,
2013-03-21 08:44:00,21.5,11.2,30.14,North,5,2.0,4.0,64,0.00,,,0.00,Wunderground v.1.15,2013-03-21 13:44:00,
2013-03-21 08:50:00,21.6,11.6,30.13,North,5,2.0,2.0,65,0.00,,,0.00,Wunderground v.1.15,2013-03-21 13:50:00,
2013-03-21 08:56:00,21.8,11.5,30.14,North,5,0.0,3.0,64,0.00,,,0.00,Wunderground v.1.15,2013-03-21 13:56:00,
2013-03-21 09:02:00,22.0,12.0,30.14,North,360,0.0,3.0,65,0.00,,,0.00,Wunderground v.1.15,2013-03-21 14:02:00,
2013-03-21 09:08:00,22.2,12.2,30.14,North,5,0.0,3.0,65,0.00,,,0.00,Wunderground v.1.15,2013-03-21 14:08:00,
2013-03-21 09:14:00,22.5,12.5,30.14,North,5,1.0,3.0,65,0.00,,,0.00,Wunderground v.1.15,2013-03-21 14:14:00,
2013-03-21 09:20:00,22.6,12.6,30.14,North,360,0.0,3.0,65,0.00,,,0.00,Wunderground v.1.15,2013-03-21 14:20:00,
2013-03-21 09:26:00,22.9,12.9,30.14,North,360,0.0,3.0,65,0.00,,,0.00,Wunderground v.1.15,2013-03-21 14:26:00,
2013-03-21 09:32:00,23.1,13.1,30.14,North,5,0.0,3.0,65,0.00,,,0.00,Wunderground v.1.15,2013-03-21 14:32:00,
2013-03-21 09:38:00,23.3,13.3,30.14,NNE,15,0.0,3.0,65,0.00,,,0.00,Wunderground v.1.15,2013-03-21 14:38:00,
2013-03-21 09:44:00,23.5,13.5,30.14,NNE,17,1.0,3.0,65,0.00,,,0.00,Wunderground v.1.15,2013-03-21 14:44:00,
2013-03-21 09:50:00,23.8,13.7,30.14,NNE,18,1.0,1.0,65,0.00,,,0.00,Wunderground v.1.15,2013-03-21 14:50:00,
2013-03-21 09:56:00,24.0,13.9,30.14,NNE,29,1.0,3.0,65,0.00,,,0.00,Wunderground v.1.15,2013-03-21 14:56:00,
2013-03-21 10:02:00,24.1,13.7,30.13,NNE,29,1.0,1.0,64,0.00,,,0.00,Wunderground v.1.15,2013-03-21 15:02:00,
2013-03-21 10:08:00,24.2,13.8,30.13,NNE,29,0.0,1.0,64,0.00,,,0.00,Wunderground v.1.15,2013-03-21 15:08:00,
2013-03-21 10:14:00,24.5,14.4,30.13,NE,36,1.0,3.0,65,0.00,,,0.00,Wunderground v.1.15,2013-03-21 15:14:00,
2013-03-21 10:20:00,24.8,14.7,30.13,NE,40,1.0,1.0,65,0.00,,,0.00,Wunderground v.1.15,2013-03-21 15:20:00,
2013-03-21 10:26:00,25.0,14.9,30.13,NE,40,1.0,1.0,65,0.00,,,0.00,Wunderground v.1.15,2013-03-21 15:26:00,
2013-03-21 10:32:00,25.3,15.2,30.13,SE,142,2.0,3.0,65,0.00,,,0.00,Wunderground v.1.15,2013-03-21 15:32:00,
2013-03-21 10:38:00,26.0,15.8,30.13,SE,146,3.0,4.0,65,0.00,,,0.00,Wunderground v.1.15,2013-03-21 15:38:00,
2013-03-21 10:44:00,26.5,16.3,30.13,SE,146,2.0,2.0,65,0.00,,,0.00,Wunderground v.1.15,2013-03-21 15:44:00,
2013-03-21 10:50:00,26.9,16.7,30.13,SSE,147,1.0,1.0,65,0.00,,,0.00,Wunderground v.1.15,2013-03-21 15:50:00,
2013-03-21 10:56:00,27.2,17.0,30.13,ESE,103,1.0,5.0,65,0.00,,,0.00,Wunderground v.1.15,2013-03-21 15:56:00,
2013-03-21 11:02:00,27.5,17.3,30.13,ESE,115,1.0,3.0,65,0.00,,,0.00,Wunderground v.1.15,2013-03-21 16:02:00,
2013-03-21 11:08:00,28.0,17.4,30.13,SSE,161,2.0,7.0,64,0.00,,,0.00,Wunderground v.1.15,2013-03-21 16:08:00,
2013-03-21 11:14:00,27.9,17.3,30.12,SSE,164,3.0,5.0,64,0.00,,,0.00,Wunderground v.1.15,2013-03-21 16:14:00,
2013-03-21 11:20:00,27.8,17.2,30.12,SSE,164,3.0,3.0,64,0.00,,,0.00,Wunderground v.1.15,2013-03-21 16:20:00,
2013-03-21 11:26:00,28.1,17.5,30.11,SSE,163,1.0,5.0,64,0.00,,,0.00,Wunderground v.1.15,2013-03-21 16:26:00,
2013-03-21 11:32:00,28.8,18.1,30.11,SE,142,1.0,5.0,64,0.00,,,0.00,Wunderground v.1.15,2013-03-21 16:32:00,
2013-03-21 11:38:00,28.9,18.2,30.11,NNE,24,2.0,5.0,64,0.00,,,0.00,Wunderground v.1.15,2013-03-21 16:38:00,
2013-03-21 11:44:00,28.9,17.9,30.11,NE,52,2.0,5.0,63,0.00,,,0.00,Wunderground v.1.15,2013-03-21 16:44:00,
2013-03-21 11:50:00,29.3,18.6,30.11,NE,52,1.0,5.0,64,0.00,,,0.00,Wunderground v.1.15,2013-03-21 16:50:00,
2013-03-21 11:56:00,29.9,19.2,30.10,ENE,61,1.0,5.0,64,0.00,,,0.00,Wunderground v.1.15,2013-03-21 16:56:00,
2013-03-21 12:02:00,30.4,19.7,30.10,ENE,70,1.0,1.0,64,0.00,,,0.00,Wunderground v.1.15,2013-03-21 17:02:00,
2013-03-21 12:08:00,30.5,19.4,30.10,ESE,102,1.0,1.0,63,0.00,,,0.00,Wunderground v.1.15,2013-03-21 17:08:00,
2013-03-21 12:14:00,30.4,19.3,30.09,East,96,1.0,1.0,63,0.00,,,0.00,Wunderground v.1.15,2013-03-21 17:14:00,
2013-03-21 12:20:00,30.3,19.2,30.09,East,96,1.0,1.0,63,0.00,,,0.00,Wunderground v.1.15,2013-03-21 17:20:00,
2013-03-21 12:26:00,30.2,19.1,30.09,East,99,1.0,2.0,63,0.00,,,0.00,Wunderground v.1.15,2013-03-21 17:26:00,
2013-03-21 12:32:00,30.3,19.2,30.09,East,101,1.0,2.0,63,0.00,,,0.00,Wunderground v.1.15,2013-03-21 17:32:00,
2013-03-21 12:38:00,30.9,19.8,30.08,SE,135,1.0,5.0,63,0.00,,,0.00,Wunderground v.1.15,2013-03-21 17:38:00,
2013-03-21 12:44:00,30.9,19.4,30.08,SSE,151,2.0,3.0,62,0.00,,,0.00,Wunderground v.1.15,2013-03-21 17:44:00,
2013-03-21 12:50:00,30.8,19.3,30.08,SE,136,1.0,1.0,62,0.00,,,0.00,Wunderground v.1.15,2013-03-21 17:50:00,
2013-03-21 12:56:00,30.9,19.4,30.07,SE,128,1.0,3.0,62,0.00,,,0.00,Wunderground v.1.15,2013-03-21 17:56:00,
2013-03-21 13:02:00,31.3,19.8,30.07,ESE,103,1.0,3.0,62,0.00,,,0.00,Wunderground v.1.15,2013-03-21 18:02:00,
2013-03-21 13:08:00,31.7,20.2,30.07,ESE,104,1.0,3.0,62,0.00,,,0.00,Wunderground v.1.15,2013-03-21 18:08:00,
2013-03-21 13:14:00,31.9,20.3,30.06,East,101,1.0,3.0,62,0.00,,,0.00,Wunderground v.1.15,2013-03-21 18:14:00,
2013-03-21 13:20:00,32.2,20.6,30.05,East,99,1.0,3.0,62,0.00,,,0.00,Wunderground v.1.15,2013-03-21 18:20:00,
2013-03-21 13:26:00,32.4,20.4,30.05,East,95,1.0,3.0,61,0.00,,,0.00,Wunderground v.1.15,2013-03-21 18:26:00,
2013-03-21 13:32:00,32.7,20.7,30.05,East,94,1.0,3.0,61,0.00,,,0.00,Wunderground v.1.15,2013-03-21 18:32:00,
2013-03-21 13:38:00,33.0,21.0,30.04,East,89,1.0,4.0,61,0.00,,,0.00,Wunderground v.1.15,2013-03-21 18:38:00,
2013-03-21 13:44:00,33.3,21.3,30.04,East,92,1.0,3.0,61,0.00,,,0.00,Wunderground v.1.15,2013-03-21 18:44:00,
2013-03-21 13:50:00,33.6,21.6,30.04,East,92,1.0,1.0,61,0.00,,,0.00,Wunderground v.1.15,2013-03-21 18:50:00,
2013-03-21 13:56:00,34.1,22.0,30.03,East,92,1.0,3.0,61,0.00,,,0.00,Wunderground v.1.15,2013-03-21 18:56:00,
2013-03-21 14:02:00,34.7,22.6,30.03,East,90,1.0,3.0,61,0.00,,,0.00,Wunderground v.1.15,2013-03-21 19:02:00,
2013-03-21 14:08:00,35.1,23.0,30.02,East,95,1.0,3.0,61,0.00,,,0.00,Wunderground v.1.15,2013-03-21 19:08:00,
2013-03-21 14:14:00,35.3,23.2,30.02,East,84,2.0,3.0,61,0.00,,,0.00,Wunderground v.1.15,2013-03-21 19:14:00,
2013-03-21 14:20:00,35.3,23.2,30.02,ENE,57,1.0,3.0,61,0.00,,,0.00,Wunderground v.1.15,2013-03-21 19:20:00,
2013-03-21 14:26:00,35.3,22.8,30.02,East,92,2.0,5.0,60,0.00,,,0.00,Wunderground v.1.15,2013-03-21 19:26:00,
2013-03-21 14:32:00,35.0,22.5,30.02,ESE,109,2.0,3.0,60,0.00,,,0.00,Wunderground v.1.15,2013-03-21 19:32:00,
2013-03-21 14:38:00,35.0,22.5,30.01,East,87,2.0,3.0,60,0.00,,,0.00,Wunderground v.1.15,2013-03-21 19:38:00,
2013-03-21 14:44:00,35.0,22.5,30.01,East,88,1.0,3.0,60,0.00,,,0.00,Wunderground v.1.15,2013-03-21 19:44:00,
2013-03-21 14:50:00,35.0,22.5,30.01,East,88,1.0,1.0,60,0.00,,,0.00,Wunderground v.1.15,2013-03-21 19:50:00,
2013-03-21 14:56:00,34.9,22.4,30.00,East,85,1.0,3.0,60,0.00,,,0.00,Wunderground v.1.15,2013-03-21 19:56:00,
2013-03-21 15:02:00,34.7,21.8,30.00,East,87,1.0,3.0,59,0.00,,,0.00,Wunderground v.1.15,2013-03-21 20:02:00,
2013-03-21 15:08:00,34.9,22.4,30.00,SE,125,2.0,5.0,60,0.00,,,0.00,Wunderground v.1.15,2013-03-21 20:08:00,
2013-03-21 15:14:00,35.2,22.7,30.00,ESE,107,2.0,3.0,60,0.00,,,0.00,Wunderground v.1.15,2013-03-21 20:14:00,
2013-03-21 15:20:00,35.7,23.2,29.99,SE,131,2.0,3.0,60,0.00,,,0.00,Wunderground v.1.15,2013-03-21 20:20:00,
2013-03-21 15:26:00,35.9,23.4,29.99,ESE,117,2.0,4.0,60,0.00,,,0.00,Wunderground v.1.15,2013-03-21 20:26:00,
2013-03-21 15:32:00,35.8,22.9,29.99,SE,137,2.0,2.0,59,0.00,,,0.00,Wunderground v.1.15,2013-03-21 20:32:00,
2013-03-21 15:38:00,35.7,22.8,29.99,SSE,151,2.0,4.0,59,0.00,,,0.00,Wunderground v.1.15,2013-03-21 20:38:00,
2013-03-21 15:44:00,35.5,22.6,29.99,SE,144,3.0,4.0,59,0.00,,,0.00,Wunderground v.1.15,2013-03-21 20:44:00,
2013-03-21 15:50:00,35.4,22.5,29.99,SE,136,2.0,2.0,59,0.00,,,0.00,Wunderground v.1.15,2013-03-21 20:50:00,
2013-03-21 15:56:00,35.3,22.4,29.99,SE,144,3.0,5.0,59,0.00,,,0.00,Wunderground v.1.15,2013-03-21 20:56:00,
2013-03-21 16:02:00,35.2,22.3,29.99,SE,137,3.0,5.0,59,0.00,,,0.00,Wunderground v.1.15,2013-03-21 21:02:00,
2013-03-21 16:08:00,35.1,22.2,29.99,SE,134,1.0,5.0,59,0.00,,,0.00,Wunderground v.1.15,2013-03-21 21:08:00,
2013-03-21 16:14:00,35.1,22.2,29.99,ESE,105,1.0,5.0,59,0.00,,,0.00,Wunderground v.1.15,2013-03-21 21:14:00,
2013-03-21 16:20:00,35.1,22.2,29.99,ESE,105,1.0,1.0,59,0.00,,,0.00,Wunderground v.1.15,2013-03-21 21:20:00,
2013-03-21 16:26:00,35.0,21.7,29.99,ESE,103,1.0,5.0,58,0.00,,,0.00,Wunderground v.1.15,2013-03-21 21:26:00,
2013-03-21 16:32:00,35.0,21.7,29.99,East,84,1.0,5.0,58,0.00,,,0.00,Wunderground v.1.15,2013-03-21 21:32:00,
2013-03-21 16:38:00,35.0,21.7,29.99,East,86,1.0,5.0,58,0.00,,,0.00,Wunderground v.1.15,2013-03-21 21:38:00,
2013-03-21 16:44:00,35.1,21.8,29.99,East,86,1.0,5.0,58,0.00,,,0.00,Wunderground v.1.15,2013-03-21 21:44:00,
2013-03-21 16:50:00,35.2,21.9,29.99,East,86,1.0,1.0,58,0.00,,,0.00,Wunderground v.1.15,2013-03-21 21:50:00,
2013-03-21 16:56:00,35.3,22.0,29.99,East,86,0.0,5.0,58,0.00,,,0.00,Wunderground v.1.15,2013-03-21 21:56:00,
2013-03-21 17:02:00,35.4,22.5,29.99,East,88,1.0,5.0,59,0.00,,,0.00,Wunderground v.1.15,2013-03-21 22:02:00,
2013-03-21 17:08:00,35.6,22.3,29.98,East,90,1.0,5.0,58,0.00,,,0.00,Wunderground v.1.15,2013-03-21 22:08:00,
2013-03-21 17:14:00,35.7,22.4,29.99,East,92,1.0,5.0,58,0.00,,,0.00,Wunderground v.1.15,2013-03-21 22:14:00,
2013-03-21 17:20:00,35.7,22.4,29.98,East,93,1.0,1.0,58,0.00,,,0.00,Wunderground v.1.15,2013-03-21 22:20:00,
2013-03-21 17:26:00,35.6,22.3,29.98,East,92,1.0,5.0,58,0.00,,,0.00,Wunderground v.1.15,2013-03-21 22:26:00,
2013-03-21 17:32:00,35.5,22.2,29.99,East,93,1.0,5.0,58,0.00,,,0.00,Wunderground v.1.15,2013-03-21 22:32:00,
2013-03-21 17:38:00,35.4,22.1,29.98,East,93,1.0,5.0,58,0.00,,,0.00,Wunderground v.1.15,2013-03-21 22:38:00,
2013-03-21 17:44:00,35.3,22.0,29.98,East,93,1.0,5.0,58,0.00,,,0.00,Wunderground v.1.15,2013-03-21 22:44:00,
2013-03-21 17:50:00,35.3,22.0,29.98,East,92,1.0,1.0,58,0.00,,,0.00,Wunderground v.1.15,2013-03-21 22:50:00,
2013-03-21 17:56:00,35.2,21.9,29.98,East,93,1.0,5.0,58,0.00,,,0.00,Wunderground v.1.15,2013-03-21 22:56:00,
2013-03-21 18:02:00,35.1,21.8,29.98,East,92,1.0,1.0,58,0.00,,,0.00,Wunderground v.1.15,2013-03-21 23:02:00,
2013-03-21 18:08:00,34.9,21.6,29.98,East,92,1.0,2.0,58,0.00,,,0.00,Wunderground v.1.15,2013-03-21 23:08:00,
2013-03-21 18:14:00,34.8,21.5,29.98,East,91,1.0,1.0,58,0.00,,,0.00,Wunderground v.1.15,2013-03-21 23:14:00,
2013-03-21 18:20:00,34.7,21.0,29.98,East,84,1.0,1.0,57,0.00,,,0.00,Wunderground v.1.15,2013-03-21 23:20:00,
2013-03-21 18:26:00,34.6,20.9,29.98,East,83,1.0,2.0,57,0.00,,,0.00,Wunderground v.1.15,2013-03-21 23:26:00,
2013-03-21 18:32:00,34.4,21.1,29.98,East,83,1.0,3.0,58,0.00,,,0.00,Wunderground v.1.15,2013-03-21 23:32:00,
2013-03-21 18:38:00,34.3,21.0,29.98,ENE,78,1.0,4.0,58,0.00,,,0.00,Wunderground v.1.15,2013-03-21 23:38:00,
2013-03-21 18:44:00,34.2,20.9,29.98,NE,53,2.0,2.0,58,0.00,,,0.00,Wunderground v.1.15,2013-03-21 23:44:00,
2013-03-21 18:50:00,34.0,20.8,29.98,NE,53,2.0,2.0,58,0.00,,,0.00,Wunderground v.1.15,2013-03-21 23:50:00,
2013-03-21 18:56:00,33.8,20.6,29.98,NE,55,1.0,4.0,58,0.00,,,0.00,Wunderground v.1.15,2013-03-21 23:56:00,
2013-03-21 19:02:00,33.7,20.5,29.98,ENE,59,1.0,4.0,58,0.00,,,0.00,Wunderground v.1.15,2013-03-22 00:02:00,
2013-03-21 19:08:00,33.5,20.3,29.98,ENE,59,1.0,4.0,58,0.00,,,0.00,Wunderground v.1.15,2013-03-22 00:08:00,
2013-03-21 19:14:00,33.4,20.2,29.98,ENE,59,1.0,4.0,58,0.00,,,0.00,Wunderground v.1.15,2013-03-22 00:14:00,
2013-03-21 19:20:00,33.2,20.0,29.98,ENE,63,1.0,4.0,58,0.00,,,0.00,Wunderground v.1.15,2013-03-22 00:20:00,
2013-03-21 19:26:00,33.1,19.9,29.98,ENE,67,1.0,4.0,58,0.00,,,0.00,Wunderground v.1.15,2013-03-22 00:26:00,
2013-03-21 19:32:00,32.9,19.7,29.98,ENE,67,1.0,4.0,58,0.00,,,0.00,Wunderground v.1.15,2013-03-22 00:32:00,
2013-03-21 19:38:00,32.9,19.7,29.98,ENE,69,1.0,4.0,58,0.00,,,0.00,Wunderground v.1.15,2013-03-22 00:38:00,
2013-03-21 19:44:00,32.7,19.5,29.98,ENE,70,1.0,4.0,58,0.00,,,0.00,Wunderground v.1.15,2013-03-22 00:44:00,
2013-03-21 19:50:00,32.6,19.4,29.98,ENE,71,0.0,4.0,58,0.00,,,0.00,Wunderground v.1.15,2013-03-22 00:50:00,
2013-03-21 19:56:00,32.5,19.3,29.98,ENE,71,0.0,4.0,58,0.00,,,0.00,Wunderground v.1.15,2013-03-22 00:56:00,
2013-03-21 20:02:00,32.4,19.3,29.99,ENE,71,0.0,4.0,58,0.00,,,0.00,Wunderground v.1.15,2013-03-22 01:02:00,
2013-03-21 20:08:00,32.3,19.2,29.99,ENE,71,0.0,4.0,58,0.00,,,0.00,Wunderground v.1.15,2013-03-22 01:08:00,
2013-03-21 20:14:00,32.2,19.1,29.99,ENE,72,0.0,4.0,58,0.00,,,0.00,Wunderground v.1.15,2013-03-22 01:14:00,
2013-03-21 20:20:00,32.2,19.1,29.99,ENE,72,0.0,4.0,58,0.00,,,0.00,Wunderground v.1.15,2013-03-22 01:20:00,
2013-03-21 20:26:00,32.1,19.0,29.99,ENE,71,0.0,4.0,58,0.00,,,0.00,Wunderground v.1.15,2013-03-22 01:26:00,
2013-03-21 20:32:00,32.1,19.4,29.99,ENE,72,0.0,4.0,59,0.00,,,0.00,Wunderground v.1.15,2013-03-22 01:32:00,
2013-03-21 20:38:00,32.1,19.4,29.99,ENE,71,1.0,4.0,59,0.00,,,0.00,Wunderground v.1.15,2013-03-22 01:38:00,
2013-03-21 20:44:00,32.1,19.4,29.99,ENE,71,0.0,4.0,59,0.00,,,0.00,Wunderground v.1.15,2013-03-22 01:44:00,
2013-03-21 20:50:00,32.0,19.3,29.99,ENE,72,0.0,4.0,59,0.00,,,0.00,Wunderground v.1.15,2013-03-22 01:50:00,
2013-03-21 20:56:00,32.0,19.3,29.99,ENE,72,0.0,4.0,59,0.00,,,0.00,Wunderground v.1.15,2013-03-22 01:56:00,
2013-03-21 21:02:00,32.0,19.3,29.99,ENE,72,0.0,1.0,59,0.00,,,0.00,Wunderground v.1.15,2013-03-22 02:02:00,
2013-03-21 21:08:00,32.0,19.3,30.00,ENE,72,0.0,1.0,59,0.00,,,0.00,Wunderground v.1.15,2013-03-22 02:08:00,
2013-03-21 21:14:00,32.0,19.3,30.00,ENE,73,0.0,0.0,59,0.00,,,0.00,Wunderground v.1.15,2013-03-22 02:14:00,
2013-03-21 21:20:00,32.0,19.3,30.00,ENE,73,0.0,0.0,59,0.00,,,0.00,Wunderground v.1.15,2013-03-22 02:20:00,
2013-03-21 21:26:00,32.0,19.3,30.00,ENE,72,0.0,1.0,59,0.00,,,0.00,Wunderground v.1.15,2013-03-22 02:26:00,
2013-03-21 21:32:00,32.0,19.3,30.00,ENE,72,0.0,0.0,59,0.00,,,0.00,Wunderground v.1.15,2013-03-22 02:32:00,
2013-03-21 21:38:00,32.0,19.7,30.00,ENE,72,0.0,1.0,60,0.00,,,0.00,Wunderground v.1.15,2013-03-22 02:38:00,
2013-03-21 21:44:00,32.0,19.7,30.00,ENE,73,0.0,1.0,60,0.00,,,0.00,Wunderground v.1.15,2013-03-22 02:44:00,
2013-03-21 21:50:00,32.0,19.7,30.00,ENE,72,0.0,0.0,60,0.00,,,0.00,Wunderground v.1.15,2013-03-22 02:50:00,
2013-03-21 21:56:00,31.9,19.6,30.00,ENE,74,0.0,4.0,60,0.00,,,0.00,Wunderground v.1.15,2013-03-22 02:56:00,
2013-03-21 22:02:00,31.9,19.6,30.00,ENE,74,1.0,4.0,60,0.00,,,0.00,Wunderground v.1.15,2013-03-22 03:02:00,
2013-03-21 22:08:00,31.9,19.6,30.00,ENE,74,0.0,4.0,60,0.00,,,0.00,Wunderground v.1.15,2013-03-22 03:08:00,
2013-03-21 22:14:00,31.9,19.6,30.00,ENE,74,0.0,4.0,60,0.00,,,0.00,Wunderground v.1.15,2013-03-22 03:14:00,
2013-03-21 22:20:00,31.9,19.6,30.01,ENE,74,0.0,4.0,60,0.00,,,0.00,Wunderground v.1.15,2013-03-22 03:20:00,
2013-03-21 22:26:00,31.9,19.6,30.01,ENE,76,0.0,4.0,60,0.00,,,0.00,Wunderground v.1.15,2013-03-22 03:26:00,
2013-03-21 22:32:00,31.8,19.5,30.01,ENE,78,0.0,4.0,60,0.00,,,0.00,Wunderground v.1.15,2013-03-22 03:32:00,
2013-03-21 22:38:00,31.8,19.5,30.01,East,80,1.0,4.0,60,0.00,,,0.00,Wunderground v.1.15,2013-03-22 03:38:00,
2013-03-21 22:44:00,31.7,19.4,30.01,East,80,1.0,4.0,60,0.00,,,0.00,Wunderground v.1.15,2013-03-22 03:44:00,
2013-03-21 22:50:00,31.7,19.4,30.01,East,87,1.0,1.0,60,0.00,,,0.00,Wunderground v.1.15,2013-03-22 03:50:00,
2013-03-21 22:56:00,31.7,19.4,30.01,East,88,1.0,4.0,60,0.00,,,0.00,Wunderground v.1.15,2013-03-22 03:56:00,
2013-03-21 23:00:00,31.6,19.3,30.00,East,88,0.0,4.0,60,0.00,,,0.00,Wunderground v.1.15,2013-03-22 04:00:00,
2013-03-21 23:04:00,31.6,19.3,30.01,East,90,1.0,4.0,60,0.00,,,0.00,Wunderground v.1.15,2013-03-22 04:04:00,
2013-03-21 23:06:00,31.6,19.3,30.01,East,90,1.0,4.0,60,0.00,,,0.00,Wunderground v.1.15,2013-03-22 04:06:00,
2013-03-21 23:12:00,31.5,19.2,30.01,East,90,1.0,4.0,60,0.00,,,0.00,Wunderground v.1.15,2013-03-22 04:12:00,
2013-03-21 23:18:00,31.5,19.2,30.01,East,90,1.0,4.0,60,0.00,,,0.00,Wunderground v.1.15,2013-03-22 04:18:00,
2013-03-21 23:24:00,31.4,19.1,30.02,East,90,0.0,4.0,60,0.00,,,0.00,Wunderground v.1.15,2013-03-22 04:24:00,
2013-03-21 23:30:00,31.4,19.1,30.01,East,90,0.0,4.0,60,0.00,,,0.00,Wunderground v.1.15,2013-03-22 04:30:00,
2013-03-21 23:36:00,31.3,19.0,30.01,East,90,0.0,4.0,60,0.00,,,0.00,Wunderground v.1.15,2013-03-22 04:36:00,
2013-03-21 23:42:00,31.2,18.9,30.02,East,90,0.0,4.0,60,0.00,,,0.00,Wunderground v.1.15,2013-03-22 04:42:00,
2013-03-21 23:48:00,31.1,18.8,30.02,East,90,0.0,4.0,60,0.00,,,0.00,Wunderground v.1.15,2013-03-22 04:48:00,
2013-03-21 23:54:00,31.0,18.7,30.01,East,90,0.0,4.0,60,0.00,,,0.00,Wunderground v.1.15,2013-03-22 04:54:00,